createdAt,value
2023-02-14T00:01:28.509Z,102373.19
2023-02-14T00:04:31.245Z,102374.06
2023-02-14T00:07:35.356Z,102375.34
2023-02-14T00:10:38.091Z,102377.44
2023-02-14T00:14:00.955Z,102367.25
2023-02-14T00:17:02.789Z,102379.88
2023-02-14T00:20:06.533Z,102383.06
2023-02-14T00:23:10.595Z,102380.44
2023-02-14T00:26:16.985Z,102378.75
2023-02-14T00:29:22.260Z,102376.72
2023-02-14T00:32:25.048Z,102365.88
2023-02-14T00:35:27.714Z,102372.06
2023-02-14T00:38:31.872Z,102349.53
2023-02-14T00:41:35.384Z,102363.34
2023-02-14T00:44:38.191Z,102363.47
2023-02-14T00:47:40.878Z,102364.38
2023-02-14T00:50:45.771Z,102361.78
2023-02-14T00:53:50.846Z,102368.13
2023-02-14T00:56:53.663Z,102345.69
2023-02-14T00:59:56.346Z,102358.50
2023-02-14T01:02:59.032Z,102371.91
2023-02-14T01:06:02.291Z,102377.25
2023-02-14T01:09:06.450Z,102379.00
2023-02-14T01:12:09.337Z,102381.88
2023-02-14T01:15:12.053Z,102379.06
2023-02-14T01:18:15.945Z,102386.31
2023-02-14T01:21:20.793Z,102379.50
2023-02-14T01:24:26.668Z,102373.84
2023-02-14T01:27:29.523Z,102379.28
2023-02-14T01:30:32.487Z,102379.91
2023-02-14T01:33:35.222Z,102372.56
2023-02-14T01:36:40.302Z,102367.44
2023-02-14T01:39:44.713Z,102361.16
2023-02-14T01:42:47.471Z,102362.97
2023-02-14T01:45:50.267Z,102370.03
2023-02-14T01:48:55.211Z,102366.50
2023-02-14T01:52:04.300Z,102363.13
2023-02-14T01:55:14.856Z,102363.03
2023-02-14T01:58:22.718Z,102360.38
2023-02-14T02:01:26.033Z,102359.56
2023-02-14T02:04:42.389Z,102366.75
2023-02-14T02:07:45.478Z,102357.81
2023-02-14T02:10:49.446Z,102360.41
2023-02-14T02:13:52.077Z,102356.09
2023-02-14T02:17:12.791Z,102352.38
2023-02-14T02:20:33.546Z,102346.13
2023-02-14T02:24:03.821Z,102353.31
2023-02-14T02:27:27.558Z,102350.03
2023-02-14T02:30:46.426Z,102348.00
2023-02-14T02:34:19.665Z,102349.78
2023-02-14T02:37:39.686Z,102343.53
2023-02-14T02:40:49.946Z,102341.91
2023-02-14T02:43:56.395Z,102353.44
2023-02-14T02:47:06.476Z,102345.28
2023-02-14T02:50:39.339Z,102344.53
2023-02-14T02:53:48.789Z,102330.47
2023-02-14T02:56:56.059Z,102306.53
2023-02-14T03:00:00.061Z,102331.66
2023-02-14T03:03:21.412Z,102331.34
2023-02-14T03:06:24.062Z,102341.00
2023-02-14T03:09:53.870Z,102333.78
2023-02-14T03:13:28.874Z,102320.28
2023-02-14T03:16:34.946Z,102334.63
2023-02-14T03:20:04.238Z,102329.34
2023-02-14T03:23:12.853Z,102323.22
2023-02-14T03:26:20.863Z,102335.66
2023-02-14T03:29:32.810Z,102333.06
2023-02-14T03:32:39.977Z,102332.28
2023-02-14T03:35:53.535Z,102334.16
2023-02-14T03:39:00.624Z,102340.34
2023-02-14T03:42:10.870Z,102339.44
2023-02-14T03:45:19.401Z,102345.66
2023-02-14T03:48:24.857Z,102344.81
2023-02-14T03:51:34.187Z,102341.88
2023-02-14T03:54:37.395Z,102337.59
2023-02-14T03:57:48.849Z,102330.53
2023-02-14T04:00:54.056Z,102327.78
2023-02-14T04:03:59.040Z,102314.25
2023-02-14T04:07:09.594Z,102329.63
2023-02-14T04:10:12.908Z,102328.09
2023-02-14T04:13:16.931Z,102335.06
2023-02-14T04:16:44.209Z,102329.91
2023-02-14T04:19:48.143Z,102319.09
2023-02-14T04:22:52.267Z,102326.19
2023-02-14T04:25:55.243Z,102335.22
2023-02-14T04:28:59.243Z,102342.44
2023-02-14T04:32:01.949Z,102332.78
2023-02-14T04:35:04.874Z,102337.88
2023-02-14T04:38:07.502Z,102334.34
2023-02-14T04:41:10.176Z,102335.06
2023-02-14T04:44:16.386Z,102326.81
2023-02-14T04:47:19.206Z,102314.41
2023-02-14T04:50:23.337Z,102332.41
2023-02-14T04:53:26.012Z,102330.53
2023-02-14T04:56:28.656Z,102333.19
2023-02-14T04:59:33.405Z,102326.03
2023-02-14T05:02:36.058Z,102324.19
2023-02-14T05:05:38.752Z,102326.75
2023-02-14T05:08:41.369Z,102315.06
2023-02-14T05:11:44.136Z,102325.72
2023-02-14T05:14:48.204Z,102331.09
2023-02-14T05:17:50.898Z,102329.28
2023-02-14T05:20:54.753Z,102320.38
2023-02-14T05:23:57.456Z,102323.13
2023-02-14T05:27:00.128Z,102314.28
2023-02-14T05:30:05.242Z,102316.19
2023-02-14T05:33:08.350Z,102317.09
2023-02-14T05:36:11.277Z,102325.88
2023-02-14T05:39:14.547Z,102313.38
2023-02-14T05:42:17.237Z,102313.19
2023-02-14T05:45:21.410Z,102327.34
2023-02-14T05:48:24.412Z,102323.84
2023-02-14T05:51:27.108Z,102310.56
2023-02-14T05:54:29.752Z,102310.50
2023-02-14T05:57:32.566Z,102312.31
2023-02-14T06:00:38.796Z,102314.09
2023-02-14T06:03:43.022Z,102310.59
2023-02-14T06:06:45.654Z,102320.28
2023-02-14T06:09:48.342Z,102315.81
2023-02-14T06:12:52.263Z,102321.22
2023-02-14T06:15:56.273Z,102332.91
2023-02-14T06:18:59.038Z,102323.94
2023-02-14T06:22:01.686Z,102332.09
2023-02-14T06:25:05.173Z,102329.41
2023-02-14T06:28:07.958Z,102332.91
2023-02-14T06:31:18.363Z,102328.53
2023-02-14T06:34:21.116Z,102329.47
2023-02-14T06:37:23.739Z,102329.56
2023-02-14T06:40:26.396Z,102334.91
2023-02-14T06:43:29.039Z,102339.50
2023-02-14T06:46:33.136Z,102341.75
2023-02-14T06:49:36.010Z,102325.53
2023-02-14T06:52:39.473Z,102325.09
2023-02-14T06:55:43.852Z,102331.28
2023-02-14T06:58:46.543Z,102341.00
2023-02-14T07:01:50.934Z,102333.94
2023-02-14T07:04:53.680Z,102340.09
2023-02-14T07:07:56.323Z,102342.69
2023-02-14T07:10:59.832Z,102335.41
2023-02-14T07:14:02.848Z,102334.56
2023-02-14T07:17:06.953Z,102334.66
2023-02-14T07:20:11.513Z,102313.00
2023-02-14T07:23:14.157Z,102333.69
2023-02-14T07:26:18.185Z,102332.84
2023-02-14T07:29:21.196Z,102337.34
2023-02-14T07:32:25.380Z,102334.78
2023-02-14T07:35:28.063Z,102336.69
2023-02-14T07:38:30.766Z,102335.03
2023-02-14T07:41:33.525Z,102334.28
2023-02-14T07:44:36.251Z,102324.41
2023-02-14T07:47:40.224Z,102325.25
2023-02-14T07:50:42.912Z,102311.00
2023-02-14T07:53:45.574Z,102335.34
2023-02-14T07:56:48.255Z,102328.19
2023-02-14T07:59:50.888Z,102336.06
2023-02-14T08:02:56.391Z,102339.69
2023-02-14T08:05:59.086Z,102337.06
2023-02-14T08:09:02.886Z,102341.59
2023-02-14T08:12:23.506Z,102335.38
2023-02-14T08:15:44.101Z,102334.56
2023-02-14T08:18:48.092Z,102329.16
2023-02-14T08:21:50.736Z,102329.22
2023-02-14T08:24:53.341Z,102330.09
2023-02-14T08:27:56.311Z,102338.88
2023-02-14T08:30:59.282Z,102325.38
2023-02-14T08:34:03.539Z,102338.94
2023-02-14T08:37:06.227Z,102332.97
2023-02-14T08:40:09.745Z,102332.09
2023-02-14T08:43:14.124Z,102320.50
2023-02-14T08:46:17.690Z,102311.59
2023-02-14T08:49:21.748Z,102319.88
2023-02-14T08:52:24.507Z,102312.91
2023-02-14T08:55:28.793Z,102311.13
2023-02-14T08:58:32.916Z,102313.03
2023-02-14T09:01:37.268Z,102311.34
2023-02-14T09:04:41.397Z,102310.50
2023-02-14T09:07:44.048Z,102282.44
2023-02-14T09:10:46.830Z,102318.53
2023-02-14T09:13:50.762Z,102307.03
2023-02-14T09:16:53.519Z,102310.47
2023-02-14T09:19:57.759Z,102313.03
2023-02-14T09:23:00.503Z,102311.22
2023-02-14T09:26:03.865Z,102316.72
2023-02-14T09:29:06.566Z,102308.09
2023-02-14T09:32:09.910Z,102309.88
2023-02-14T09:35:13.998Z,102306.09
2023-02-14T09:38:19.439Z,102306.00
2023-02-14T09:41:47.946Z,102259.41
2023-02-14T09:44:55.135Z,102301.81
2023-02-14T09:48:02.884Z,102307.28
2023-02-14T09:51:13.198Z,102297.38
2023-02-14T09:54:22.589Z,102302.97
2023-02-14T09:57:35.245Z,102298.63
2023-02-14T10:00:46.619Z,102294.34
2023-02-14T10:04:04.208Z,102285.34
2023-02-14T10:07:19.597Z,102288.00
2023-02-14T10:10:28.262Z,102292.56
2023-02-14T10:13:37.208Z,102291.84
2023-02-14T10:16:44.741Z,102290.00
2023-02-14T10:19:52.859Z,102281.94
2023-02-14T10:23:04.386Z,102279.31
2023-02-14T10:26:11.650Z,102273.03
2023-02-14T10:29:17.108Z,102271.31
2023-02-14T10:32:27.120Z,102279.31
2023-02-14T10:35:42.805Z,102275.78
2023-02-14T10:38:59.188Z,102270.41
2023-02-14T10:42:13.200Z,102261.53
2023-02-14T10:45:24.594Z,102258.00
2023-02-14T10:48:48.833Z,102261.66
2023-02-14T10:51:58.150Z,102253.75
2023-02-14T10:55:20.204Z,102238.50
2023-02-14T10:58:36.970Z,102246.69
2023-02-14T11:01:40.009Z,102247.63
2023-02-14T11:04:43.841Z,102244.09
2023-02-14T11:07:46.493Z,102229.81
2023-02-14T11:10:50.710Z,102237.06
2023-02-14T11:13:53.619Z,102227.22
2023-02-14T11:16:58.729Z,102220.16
2023-02-14T11:20:06.303Z,102220.22
2023-02-14T11:23:21.156Z,102224.75
2023-02-14T11:26:27.536Z,102218.56
2023-02-14T11:29:32.611Z,102214.88
2023-02-14T11:32:37.635Z,102213.94
2023-02-14T11:35:40.670Z,102204.03
2023-02-14T11:38:46.288Z,102204.94
2023-02-14T11:41:52.674Z,102205.84
2023-02-14T11:44:58.565Z,102205.91
2023-02-14T11:48:31.493Z,102169.97
2023-02-14T11:51:46.242Z,102193.31
2023-02-14T11:54:50.279Z,102189.78
2023-02-14T11:57:55.896Z,102182.66
2023-02-14T12:01:03.929Z,102187.22
2023-02-14T12:04:14.326Z,102179.16
2023-02-14T12:07:23.938Z,102179.19
2023-02-14T12:10:28.998Z,102181.00
2023-02-14T12:13:33.688Z,102161.41
2023-02-14T12:16:41.360Z,102158.69
2023-02-14T12:19:50.096Z,102161.38
2023-02-14T12:22:59.832Z,102154.22
2023-02-14T12:26:10.775Z,102152.34
2023-02-14T12:29:21.907Z,102153.28
2023-02-14T12:32:27.273Z,102154.13
2023-02-14T12:35:44.417Z,102146.94
2023-02-14T12:38:54.822Z,102140.72
2023-02-14T12:42:06.869Z,102140.75
2023-02-14T12:45:20.967Z,102136.25
2023-02-14T12:48:35.654Z,102130.88
2023-02-14T12:51:45.008Z,102126.41
2023-02-14T12:55:01.831Z,102127.25
2023-02-14T12:58:19.366Z,102120.06
2023-02-14T13:01:55.638Z,102125.47
2023-02-14T13:05:03.768Z,102118.31
2023-02-14T13:08:19.901Z,102139.84
2023-02-14T13:11:35.253Z,102122.81
2023-02-14T13:14:49.130Z,102121.94
2023-02-14T13:17:56.449Z,102106.75
2023-02-14T13:21:04.265Z,102113.91
2023-02-14T13:24:19.418Z,102111.25
2023-02-14T13:27:24.573Z,102097.75
2023-02-14T13:30:32.556Z,102100.44
2023-02-14T13:33:39.506Z,102102.22
2023-02-14T13:36:45.039Z,102104.00
2023-02-14T13:39:52.490Z,102091.44
2023-02-14T13:42:58.178Z,102092.34
2023-02-14T13:46:00.900Z,102095.94
2023-02-14T13:49:22.103Z,102093.25
2023-02-14T13:52:44.081Z,102084.31
2023-02-14T13:55:48.824Z,102074.47
2023-02-14T13:58:53.956Z,102071.78
2023-02-14T14:01:57.619Z,102080.72
2023-02-14T14:05:01.968Z,102082.50
2023-02-14T14:08:35.118Z,102080.72
2023-02-14T14:12:01.856Z,102076.22
2023-02-14T14:15:21.458Z,102083.31
2023-02-14T14:18:42.734Z,102085.03
2023-02-14T14:22:01.869Z,102080.59
2023-02-14T14:25:12.144Z,102078.81
2023-02-14T14:28:20.798Z,102052.75
2023-02-14T14:31:23.620Z,102067.09
2023-02-14T14:34:28.654Z,102069.88
2023-02-14T14:37:33.172Z,102066.22
2023-02-14T14:40:39.131Z,102073.38
2023-02-14T14:43:42.551Z,102070.63
2023-02-14T14:46:46.768Z,102073.31
2023-02-14T14:49:49.925Z,102068.84
2023-02-14T14:52:55.133Z,102065.22
2023-02-14T14:55:59.803Z,102046.34
2023-02-14T14:59:17.521Z,102068.81
2023-02-14T15:02:27.376Z,102055.44
2023-02-14T15:05:34.300Z,102059.94
2023-02-14T15:08:37.596Z,102056.28
2023-02-14T15:12:12.000Z,102054.38
2023-02-14T15:15:17.426Z,102052.59
2023-02-14T15:18:21.684Z,102050.75
2023-02-14T15:21:24.517Z,102036.34
2023-02-14T15:24:27.789Z,102054.28
2023-02-14T15:27:32.364Z,102055.13
2023-02-14T15:30:38.934Z,102043.50
2023-02-14T15:33:41.853Z,102053.31
2023-02-14T15:36:46.611Z,102042.47
2023-02-14T15:39:53.337Z,102053.16
2023-02-14T15:42:59.414Z,102055.84
2023-02-14T15:46:16.938Z,102053.25
2023-02-14T15:49:23.789Z,102054.94
2023-02-14T15:52:26.481Z,102047.91
2023-02-14T15:55:29.576Z,102051.56
2023-02-14T15:58:36.180Z,102045.22
2023-02-14T16:01:39.876Z,102045.09
2023-02-14T16:04:42.760Z,102045.97
2023-02-14T16:07:57.986Z,102041.47
2023-02-14T16:11:04.361Z,102041.59
2023-02-14T16:14:36.013Z,102037.94
2023-02-14T16:17:40.160Z,102038.88
2023-02-14T16:20:46.993Z,102037.13
2023-02-14T16:24:14.332Z,102031.66
2023-02-14T16:27:17.659Z,102041.59
2023-02-14T16:30:21.577Z,102043.50
2023-02-14T16:33:27.194Z,102015.56
2023-02-14T16:36:32.088Z,102042.38
2023-02-14T16:39:36.749Z,102037.81
2023-02-14T16:42:42.480Z,102051.25
2023-02-14T16:45:45.720Z,102044.22
2023-02-14T16:48:52.220Z,102052.13
2023-02-14T16:51:55.815Z,102053.03
2023-02-14T16:54:59.819Z,102051.19
2023-02-14T16:58:04.199Z,102049.38
2023-02-14T17:01:06.999Z,102061.78
2023-02-14T17:04:10.119Z,102066.22
2023-02-14T17:07:14.792Z,102050.28
2023-02-14T17:10:21.229Z,102060.19
2023-02-14T17:13:27.635Z,102072.53
2023-02-14T17:16:31.122Z,102071.50
2023-02-14T17:19:34.644Z,102069.63
2023-02-14T17:22:38.260Z,102073.38
2023-02-14T17:25:42.486Z,102075.97
2023-02-14T17:28:46.466Z,102070.63
2023-02-14T17:31:49.394Z,102069.66
2023-02-14T17:34:55.414Z,102070.50
2023-02-14T17:37:58.183Z,102069.59
2023-02-14T17:41:11.825Z,102065.09
2023-02-14T17:44:14.501Z,102069.66
2023-02-14T17:47:18.339Z,102061.59
2023-02-14T17:50:24.119Z,102064.28
2023-02-14T17:53:31.276Z,102066.00
2023-02-14T17:56:35.403Z,102065.97
2023-02-14T17:59:38.192Z,102067.78
2023-02-14T18:02:41.026Z,102069.50
2023-02-14T18:05:43.732Z,102077.53
2023-02-14T18:08:49.898Z,102077.53
2023-02-14T18:11:54.167Z,102065.00
2023-02-14T18:14:57.218Z,102077.47
2023-02-14T18:17:59.973Z,102072.16
2023-02-14T18:21:04.228Z,102074.03
2023-02-14T18:24:08.194Z,102073.16
2023-02-14T18:27:15.966Z,102065.09
2023-02-14T18:30:19.278Z,102065.00
2023-02-14T18:33:24.095Z,102041.59
2023-02-14T18:36:28.266Z,102042.50
2023-02-14T18:39:32.741Z,102045.25
2023-02-14T18:42:36.937Z,102050.78
2023-02-14T18:45:41.295Z,102053.31
2023-02-14T18:48:44.973Z,102048.84
2023-02-14T18:51:48.959Z,102043.47
2023-02-14T18:54:51.645Z,102039.91
2023-02-14T18:57:55.987Z,102040.72
2023-02-14T19:00:59.328Z,102040.66
2023-02-14T19:04:03.012Z,102029.88
2023-02-14T19:07:05.775Z,102033.53
2023-02-14T19:10:10.055Z,102028.34
2023-02-14T19:13:14.661Z,101993.19
2023-02-14T19:16:20.125Z,102016.81
2023-02-14T19:19:23.257Z,102014.13
2023-02-14T19:22:25.935Z,102015.88
2023-02-14T19:25:29.461Z,102011.31
2023-02-14T19:28:33.761Z,102014.97
2023-02-14T19:31:37.517Z,102010.28
2023-02-14T19:34:40.372Z,102011.13
2023-02-14T19:37:43.019Z,102002.06
2023-02-14T19:40:45.968Z,101996.69
2023-02-14T19:43:51.650Z,101995.00
2023-02-14T19:46:56.482Z,101998.59
2023-02-14T19:49:59.366Z,101996.88
2023-02-14T19:53:02.065Z,101995.06
2023-02-14T19:56:04.943Z,101992.28
2023-02-14T19:59:10.072Z,101992.19
2023-02-14T20:02:15.178Z,101987.75
2023-02-14T20:05:19.277Z,101984.22
2023-02-14T20:08:21.943Z,101980.59
2023-02-14T20:11:32.629Z,101979.72
2023-02-14T20:14:50.481Z,101983.34
2023-02-14T20:17:54.365Z,101980.91
2023-02-14T20:21:02.978Z,101976.41
2023-02-14T20:24:06.267Z,101979.94
2023-02-14T20:27:08.940Z,101949.38
2023-02-14T20:30:14.330Z,101978.03
2023-02-14T20:33:17.026Z,101977.03
2023-02-14T20:36:20.681Z,101965.38
2023-02-14T20:39:27.759Z,101963.78
2023-02-14T20:42:30.469Z,101961.13
2023-02-14T20:45:34.462Z,101964.72
2023-02-14T20:48:37.152Z,101943.13
2023-02-14T20:51:39.794Z,101958.41
2023-02-14T20:54:42.521Z,101953.22
2023-02-14T20:57:45.242Z,101943.47
2023-02-14T21:00:49.865Z,101946.09
2023-02-14T21:03:54.410Z,101947.69
2023-02-14T21:06:57.896Z,101945.84
2023-02-14T21:10:00.701Z,101939.63
2023-02-14T21:13:03.366Z,101941.34
2023-02-14T21:16:09.434Z,101933.38
2023-02-14T21:19:12.602Z,101932.63
2023-02-14T21:22:15.642Z,101930.84
2023-02-14T21:25:18.320Z,101924.44
2023-02-14T21:28:21.045Z,101913.13
2023-02-14T21:31:25.970Z,101923.84
2023-02-14T21:34:29.038Z,101917.38
2023-02-14T21:37:32.881Z,101920.00
2023-02-14T21:40:35.546Z,101908.53
2023-02-14T21:43:40.081Z,101911.28
2023-02-14T21:46:44.153Z,101898.84
2023-02-14T21:50:04.135Z,101909.59
2023-02-14T21:53:07.781Z,101898.56
2023-02-14T21:56:15.105Z,101871.66
2023-02-14T21:59:19.076Z,101895.16
2023-02-14T22:02:23.094Z,101899.75
2023-02-14T22:05:26.840Z,101889.78
2023-02-14T22:08:30.049Z,101895.06
2023-02-14T22:11:32.684Z,101897.94
2023-02-14T22:14:35.410Z,101891.53
2023-02-14T22:17:39.436Z,101895.16
2023-02-14T22:20:42.145Z,101894.19
2023-02-14T22:23:47.587Z,101878.09
2023-02-14T22:26:50.228Z,101888.88
2023-02-14T22:29:52.864Z,101878.22
2023-02-14T22:32:56.933Z,101872.88
2023-02-14T22:36:00.637Z,101884.53
2023-02-14T22:39:05.078Z,101876.44
2023-02-14T22:42:07.732Z,101879.06
2023-02-14T22:45:10.893Z,101875.44
2023-02-14T22:48:17.266Z,101880.84
2023-02-14T22:51:26.592Z,101873.81
2023-02-14T22:54:29.452Z,101878.31
2023-02-14T22:57:32.667Z,101876.44
2023-02-14T23:00:35.397Z,101875.50
2023-02-14T23:03:39.431Z,101879.88
2023-02-14T23:06:42.138Z,101873.69
2023-02-14T23:09:45.111Z,101883.53
2023-02-14T23:13:05.215Z,101876.59
2023-02-14T23:16:27.118Z,101869.41
2023-02-14T23:19:51.054Z,101864.75
2023-02-14T23:22:53.692Z,101854.91
2023-02-14T23:25:56.358Z,101867.41
2023-02-14T23:28:59.040Z,101862.00
2023-02-14T23:32:01.859Z,101867.44
2023-02-14T23:35:07.448Z,101865.59
2023-02-14T23:38:10.353Z,101866.44
2023-02-14T23:41:31.118Z,101870.88
2023-02-14T23:44:34.472Z,101863.91
2023-02-14T23:47:37.260Z,101878.94
2023-02-14T23:50:41.612Z,101870.84
2023-02-14T23:53:44.326Z,101864.78
2023-02-14T23:56:47.790Z,101862.84
2023-02-14T23:59:50.455Z,101861.13
